Time;durP1;ratioP1;P1;durP2;ratioP2;P2;SDS_P1;SDS_P2;PMS_P1;PMS_P2;Temp;Humidity;BMP_temperature;BMP_pressure;BME280_temperature;BME280_humidity;BME280_pressure;Samples;Min_cycle;Max_cycle;Signal;HPM_P1;HPM_P2
2022/01/31 00:02:14;;;;;;;6.05;2.72;;;;;;;20.74;35.39;101567.78;7314742;19;131646;-40
2022/01/31 00:04:42;;;;;;;4.97;2.83;;;;;;;20.72;35.57;101561.63;7311618;19;129059;-42
2022/01/31 00:07:29;;;;;;;6.55;2.88;;;;;;;20.70;35.83;101530.44;7312862;19;130505;-40
2022/01/31 00:09:56;;;;;;;5.35;2.67;;;;;;;20.68;35.66;101515.94;7313121;19;131533;-40
2022/01/31 00:12:27;;;;;;;8.15;3.00;;;;;;;20.67;35.75;101511.50;7311537;19;129520;-41
2022/01/31 00:15:00;;;;;;;6.18;2.58;;;;;;;20.64;35.58;101492.53;7312887;19;129140;-43
2022/01/31 00:17:27;;;;;;;7.55;2.58;;;;;;;20.63;35.60;101501.94;7308919;19;129962;-41
2022/01/31 00:19:54;;;;;;;7.00;2.63;;;;;;;20.62;35.81;101483.56;7312880;19;130342;-42
2022/01/31 00:22:21;;;;;;;4.55;2.95;;;;;;;20.58;35.50;101467.38;7312920;19;130165;-40
2022/01/31 00:24:49;;;;;;;6.25;2.63;;;;;;;20.57;35.69;101464.84;7310719;19;130020;-43
2022/01/31 00:27:15;;;;;;;6.72;2.70;;;;;;;20.55;35.75;101459.56;7312818;19;130607;-40
2022/01/31 00:29:42;;;;;;;6.88;2.67;;;;;;;20.54;35.33;101452.31;7310199;19;130423;-43
2022/01/31 00:32:09;;;;;;;6.28;3.15;;;;;;;20.52;35.68;101440.59;7312986;19;130055;-43
2022/01/31 00:34:36;;;;;;;6.30;2.60;;;;;;;20.52;36.00;101429.47;7310212;19;129320;-42
2022/01/31 00:37:03;;;;;;;8.80;2.90;;;;;;;20.49;35.44;101418.84;7310579;19;128970;-43
2022/01/31 00:39:33;;;;;;;9.13;2.83;;;;;;;20.47;35.44;101409.91;7310491;19;130056;-40
2022/01/31 00:42:02;;;;;;;7.50;2.97;;;;;;;20.45;35.39;101401.81;7310841;19;129564;-40
2022/01/31 00:44:40;;;;;;;11.10;2.55;;;;;;;20.42;35.19;101391.19;7313314;19;128950;-41
2022/01/31 00:47:17;;;;;;;7.22;2.20;;;;;;;20.42;35.10;101379.25;7310015;19;130215;-42
2022/01/31 00:49:50;;;;;;;6.00;2.55;;;;;;;20.41;35.10;101358.09;7310478;19;129626;-41
2022/01/31 00:52:18;;;;;;;10.90;3.13;;;;;;;20.39;35.25;101346.38;7312607;19;129467;-40
2022/01/31 00:54:46;;;;;;;8.68;2.83;;;;;;;20.38;35.18;101333.59;7309436;19;130233;-42
2022/01/31 00:57:13;;;;;;;5.90;2.42;;;;;;;20.36;35.49;101316.31;7311721;19;129073;-40
2022/01/31 00:59:39;;;;;;;8.05;2.67;;;;;;;20.35;35.37;101317.41;7308386;19;130205;-40
2022/01/31 01:02:06;;;;;;;7.65;2.60;;;;;;;20.35;34.96;101318.25;7310594;19;129485;-44
2022/01/31 01:04:33;;;;;;;5.75;2.72;;;;;;;20.33;35.22;101297.34;7311410;19;129993;-40
2022/01/31 01:07:00;;;;;;;9.40;3.58;;;;;;;20.32;35.05;101295.66;7310002;19;129824;-40
2022/01/31 01:09:27;;;;;;;8.70;2.08;;;;;;;20.29;34.90;101292.31;7310344;19;129567;-40
2022/01/31 01:11:54;;;;;;;8.48;2.60;;;;;;;20.27;35.23;101291.72;7309904;19;130811;-40
2022/01/31 01:14:20;;;;;;;6.80;2.72;;;;;;;20.27;35.32;101282.50;7310869;19;129060;-41
2022/01/31 01:16:47;;;;;;;9.80;2.50;;;;;;;20.27;35.13;101277.81;7311034;19;128933;-40
2022/01/31 01:19:14;;;;;;;8.45;2.38;;;;;;;20.24;34.58;101267.19;7307795;19;129568;-40
2022/01/31 01:21:41;;;;;;;6.80;2.50;;;;;;;20.24;35.05;101244.97;7311818;19;129410;-40
2022/01/31 01:24:07;;;;;;;5.75;2.75;;;;;;;20.22;34.67;101240.78;7308490;19;129967;-39
2022/01/31 01:26:34;;;;;;;6.97;2.20;;;;;;;20.21;34.79;101237.13;7311613;19;128935;-40
2022/01/31 01:29:01;;;;;;;5.32;2.08;;;;;;;20.19;34.89;101224.59;7307326;19;129596;-43
2022/01/31 01:31:29;;;;;;;5.60;2.55;;;;;;;20.19;34.52;101236.53;7316472;19;131482;-40
2022/01/31 01:33:56;;;;;;;6.85;2.08;;;;;;;20.18;34.69;101218.22;7318569;19;130171;-40
2022/01/31 01:36:22;;;;;;;6.90;2.50;;;;;;;20.16;34.62;101216.75;7316700;19;129206;-41
2022/01/31 01:38:49;;;;;;;7.13;2.17;;;;;;;20.14;34.66;101200.34;7315903;19;132139;-41
2022/01/31 01:41:16;;;;;;;9.10;2.17;;;;;;;20.13;34.81;101198.66;7314383;19;129859;-41
2022/01/31 01:43:43;;;;;;;7.38;3.05;;;;;;;20.11;34.61;101173.06;7317204;19;129225;-40
2022/01/31 01:46:10;;;;;;;8.60;2.50;;;;;;;20.10;34.82;101163.03;7317864;19;129706;-40
2022/01/31 01:48:37;;;;;;;7.50;2.67;;;;;;;20.08;34.56;101156.88;7315670;19;130212;-40
2022/01/31 01:51:05;;;;;;;9.63;2.47;;;;;;;20.08;34.39;101156.88;7317829;19;129867;-42
2022/01/31 01:53:32;;;;;;;7.93;2.20;;;;;;;20.06;34.75;101145.22;7314991;19;129675;-43
2022/01/31 01:55:59;;;;;;;11.48;2.63;;;;;;;20.04;34.43;101148.22;7317697;19;129206;-40
2022/01/31 01:58:30;;;;;;;8.35;2.70;;;;;;;20.03;34.64;101132.66;7315671;19;130144;-42
2022/01/31 02:01:01;;;;;;;7.38;2.70;;;;;;;20.03;34.81;101131.81;7316418;19;129497;-41
2022/01/31 02:03:30;;;;;;;8.40;2.53;;;;;;;20.02;34.51;101146.78;7317349;19;128973;-40
2022/01/31 02:05:57;;;;;;;7.07;2.60;;;;;;;19.99;34.24;101137.88;7315494;19;130865;-41
2022/01/31 02:08:27;;;;;;;16.30;2.97;;;;;;;19.98;34.68;101138.94;7316717;19;130648;-40
2022/01/31 02:10:54;;;;;;;11.20;2.50;;;;;;;19.98;34.36;101133.38;7316878;19;129405;-44
2022/01/31 02:13:24;;;;;;;5.85;2.05;;;;;;;19.97;34.43;101122.53;7315957;19;128782;-40
2022/01/31 02:15:51;;;;;;;10.52;2.75;;;;;;;19.95;34.25;101114.44;7317154;19;128989;-41
2022/01/31 02:18:24;;;;;;;5.55;2.03;;;;;;;19.96;34.43;101123.63;7314383;19;130185;-40
2022/01/31 02:20:50;;;;;;;7.65;2.58;;;;;;;19.94;34.42;101098.03;7316918;19;131156;-41
2022/01/31 02:23:18;;;;;;;6.45;2.28;;;;;;;19.91;34.39;101085.50;7313442;19;129615;-40
2022/01/31 02:26:03;;;;;;;6.97;2.30;;;;;;;19.92;34.21;101089.09;7315937;19;129739;-40
2022/01/31 02:28:34;;;;;;;8.05;2.30;;;;;;;19.89;34.11;101076.56;7316567;19;131399;-41
2022/01/31 02:31:02;;;;;;;8.27;2.40;;;;;;;19.87;34.14;101083.47;7313343;19;129686;-40
2022/01/31 02:33:29;;;;;;;4.55;2.00;;;;;;;19.86;34.18;101082.63;7315477;19;129045;-40
2022/01/31 02:36:01;;;;;;;6.75;2.35;;;;;;;19.86;34.38;101099.28;7313079;19;128880;-40
2022/01/31 02:38:30;;;;;;;6.75;2.40;;;;;;;19.86;34.06;101098.47;7314698;19;129904;-40
2022/01/31 02:40:57;;;;;;;6.70;2.22;;;;;;;19.83;34.08;101070.09;7315566;19;129398;-40
2022/01/31 02:43:27;;;;;;;7.40;2.10;;;;;;;19.83;34.40;101070.09;7312126;19;128879;-41
2022/01/31 02:45:54;;;;;;;6.13;2.28;;;;;;;19.81;33.99;101068.66;7315591;19;129266;-40
2022/01/31 02:48:24;;;;;;;6.55;1.75;;;;;;;19.80;33.92;101072.53;7313858;19;129668;-40
2022/01/31 02:50:52;;;;;;;5.38;2.00;;;;;;;19.79;34.40;101073.63;7315679;19;131547;-41
2022/01/31 02:53:28;;;;;;;7.88;2.25;;;;;;;19.79;34.14;101076.41;7316302;19;128983;-41
2022/01/31 02:55:58;;;;;;;9.13;2.40;;;;;;;19.77;34.31;101064.69;7313443;19;128974;-40
2022/01/31 02:58:26;;;;;;;7.15;2.47;;;;;;;19.77;34.32;101056.38;7314902;19;130705;-41
2022/01/31 03:00:55;;;;;;;5.60;2.28;;;;;;;19.74;34.31;101071.59;7313222;19;130293;-42
2022/01/31 03:03:22;;;;;;;5.30;1.88;;;;;;;19.75;34.19;101069.66;7314851;19;128881;-41
2022/01/31 03:05:49;;;;;;;8.52;2.40;;;;;;;19.74;34.10;101057.72;7315725;19;130638;-40
2022/01/31 03:08:16;;;;;;;5.43;2.13;;;;;;;19.72;34.25;101059.91;7313904;19;129586;-42
2022/01/31 03:10:43;;;;;;;7.68;2.25;;;;;;;19.71;34.27;101051.81;7315795;19;131106;-40
2022/01/31 03:13:10;;;;;;;6.32;2.20;;;;;;;19.69;33.90;101055.69;7313493;19;129253;-41
2022/01/31 03:15:37;;;;;;;6.18;2.30;;;;;;;19.69;33.86;101057.63;7315456;19;130031;-42
2022/01/31 03:18:05;;;;;;;6.53;1.90;;;;;;;19.68;34.36;101059.56;7310544;19;131672;-40
2022/01/31 03:20:32;;;;;;;8.35;2.10;;;;;;;19.66;34.28;101058.97;7313681;19;131135;-40
2022/01/31 03:22:59;;;;;;;5.35;1.67;;;;;;;19.65;33.85;101054.50;7314278;19;128877;-40
2022/01/31 03:25:26;;;;;;;5.50;2.20;;;;;;;19.64;34.14;101054.75;7311572;19;129348;-42
2022/01/31 03:27:53;;;;;;;5.70;2.00;;;;;;;19.64;34.12;101046.41;7313855;19;129926;-41
2022/01/31 03:30:22;;;;;;;6.20;2.28;;;;;;;19.63;33.86;101051.13;7314645;19;129490;-40
2022/01/31 03:32:49;;;;;;;8.57;2.45;;;;;;;19.61;34.17;101053.31;7312780;19;129240;-40
2022/01/31 03:35:17;;;;;;;4.55;2.10;;;;;;;19.60;34.05;101040.53;7314959;19;129641;-40
2022/01/31 03:37:44;;;;;;;6.97;2.38;;;;;;;19.59;34.32;101033.28;7311347;19;129897;-40
2022/01/31 03:40:11;;;;;;;5.13;2.05;;;;;;;19.58;34.36;101042.72;7311908;19;131572;-40
2022/01/31 03:42:39;;;;;;;4.85;1.75;;;;;;;19.57;33.89;101035.47;7312114;19;129554;-41
2022/01/31 03:45:08;;;;;;;6.85;1.90;;;;;;;19.56;33.88;101028.28;7313831;19;129439;-40
2022/01/31 03:47:36;;;;;;;7.53;1.90;;;;;;;19.56;34.08;101032.97;7314509;19;129760;-41
2022/01/31 03:50:04;;;;;;;6.93;1.65;;;;;;;19.53;33.91;101035.13;7311046;19;129926;-40
2022/01/31 03:52:31;;;;;;;4.90;1.80;;;;;;;19.54;34.22;101013.81;7313320;19;129319;-40
2022/01/31 03:54:57;;;;;;;6.05;1.83;;;;;;;19.54;34.38;101019.34;7311772;19;129013;-40
2022/01/31 03:57:24;;;;;;;6.18;1.83;;;;;;;19.52;34.28;101027.06;7311159;19;130038;-41
2022/01/31 03:59:51;;;;;;;5.65;1.80;;;;;;;19.51;34.11;101020.66;7311882;19;130374;-40
2022/01/31 04:02:18;;;;;;;5.80;1.85;;;;;;;19.50;34.14;101032.88;7311694;19;128878;-41
2022/01/31 04:04:45;;;;;;;5.45;1.83;;;;;;;19.49;34.29;101022.88;7314526;19;129375;-40
2022/01/31 04:07:12;;;;;;;5.65;2.08;;;;;;;19.48;34.29;101025.88;7310729;19;130066;-40
2022/01/31 04:09:39;;;;;;;8.68;1.75;;;;;;;19.47;34.25;101024.19;7313134;19;131680;-40
2022/01/31 04:12:06;;;;;;;7.20;2.08;;;;;;;19.46;34.25;101022.50;7313474;19;129967;-40
2022/01/31 04:14:33;;;;;;;7.60;2.10;;;;;;;19.47;34.04;101038.06;7312336;19;128932;-41
2022/01/31 04:17:00;;;;;;;8.85;1.95;;;;;;;19.45;34.24;101026.38;7312422;19;130209;-41
2022/01/31 04:19:27;;;;;;;5.22;1.95;;;;;;;19.43;34.17;101020.25;7310092;19;129978;-43
2022/01/31 04:21:54;;;;;;;6.00;1.85;;;;;;;19.43;33.96;101018.31;7313517;19;129086;-42
2022/01/31 04:24:30;;;;;;;6.20;2.17;;;;;;;19.42;34.22;101015.81;7309983;19;131032;-41
2022/01/31 04:26:59;;;;;;;6.80;1.90;;;;;;;19.41;34.14;101019.66;7311398;19;129508;-41
2022/01/31 04:29:31;;;;;;;6.68;2.17;;;;;;;19.42;34.23;101021.34;7312594;19;129188;-42
2022/01/31 04:31:58;;;;;;;6.07;1.83;;;;;;;19.40;34.16;101023.53;7310705;19;128964;-41
2022/01/31 04:34:25;;;;;;;6.25;1.63;;;;;;;19.39;33.95;101022.66;7312878;19;130239;-41
2022/01/31 04:36:52;;;;;;;5.60;1.90;;;;;;;19.37;34.18;101025.69;7310451;19;130617;-41
2022/01/31 04:39:19;;;;;;;6.03;1.67;;;;;;;19.35;34.08;101019.56;7310511;19;129392;-40
2022/01/31 04:41:49;;;;;;;6.03;2.10;;;;;;;19.36;33.93;101006.53;7312528;19;129365;-43
2022/01/31 04:44:16;;;;;;;4.00;1.63;;;;;;;19.35;33.86;101015.94;7310439;19;130838;-44
2022/01/31 04:46:45;;;;;;;4.75;1.70;;;;;;;19.36;34.05;101015.69;7312660;19;129994;-40
2022/01/31 04:49:12;;;;;;;6.22;2.20;;;;;;;19.35;34.15;101011.22;7308962;19;129577;-43
2022/01/31 04:51:39;;;;;;;7.25;1.65;;;;;;;19.34;33.67;101000.41;7311136;19;132074;-40
2022/01/31 04:54:06;;;;;;;5.00;1.92;;;;;;;19.35;33.91;101008.47;7313039;19;130272;-41
2022/01/31 04:56:34;;;;;;;5.53;2.20;;;;;;;19.38;33.76;101005.19;7311212;19;130774;-42
2022/01/31 04:59:01;;;;;;;6.28;1.75;;;;;;;19.45;34.03;101001.41;7311568;19;130450;-42
2022/01/31 05:01:28;;;;;;;9.27;1.80;;;;;;;19.52;33.55;101002.94;7309075;19;130475;-42
2022/01/31 05:03:55;;;;;;;7.82;1.58;;;;;;;19.62;33.57;101009.78;7310658;19;128871;-40
2022/01/31 05:06:29;;;;;;;7.15;1.67;;;;;;;19.75;33.30;101003.91;7318282;19;129998;-40
2022/01/31 05:08:56;;;;;;;3.78;1.63;;;;;;;19.87;33.00;101001.03;7317723;19;131457;-40
2022/01/31 05:11:23;;;;;;;4.80;1.77;;;;;;;20.01;32.84;100997.94;7318903;19;131486;-40
2022/01/31 05:13:50;;;;;;;4.05;1.75;;;;;;;20.16;32.64;100995.41;7316137;19;130272;-40
2022/01/31 05:16:17;;;;;;;5.03;1.50;;;;;;;20.31;32.36;100989.22;7318073;19;129721;-42
2022/01/31 05:18:44;;;;;;;7.15;1.80;;;;;;;20.51;32.28;100977.53;7315302;19;130238;-40
2022/01/31 05:21:11;;;;;;;5.95;1.90;;;;;;;20.71;32.12;100987.22;7318223;19;128898;-42
2022/01/31 05:23:38;;;;;;;4.05;1.25;;;;;;;20.89;32.04;100981.38;7317276;19;128867;-40
2022/01/31 05:26:05;;;;;;;6.85;2.08;;;;;;;21.06;31.73;100983.19;7315566;19;130885;-43
2022/01/31 05:28:32;;;;;;;3.83;1.80;;;;;;;21.21;31.35;100980.59;7318029;19;129932;-43
2022/01/31 05:30:59;;;;;;;6.20;1.73;;;;;;;21.35;31.13;100977.38;7314933;19;129008;-42
2022/01/31 05:33:25;;;;;;;5.97;1.70;;;;;;;21.43;31.25;100974.09;7316843;19;129234;-40
2022/01/31 05:35:53;;;;;;;5.05;1.60;;;;;;;21.48;31.12;100974.16;7317901;19;129615;-41
2022/01/31 05:38:19;;;;;;;7.95;1.83;;;;;;;21.49;31.05;100975.88;7315301;19;129520;-41
2022/01/31 05:40:46;;;;;;;8.80;1.90;;;;;;;21.48;30.91;100971.38;7316284;19;130431;-41
2022/01/31 05:43:13;;;;;;;6.78;1.80;;;;;;;21.44;30.61;100969.38;7315146;19;129274;-40
2022/01/31 05:45:40;;;;;;;5.07;1.70;;;;;;;21.40;30.78;100971.00;7315343;19;129656;-40
2022/01/31 05:48:07;;;;;;;8.07;2.10;;;;;;;21.35;30.55;100974.59;7317414;19;130630;-42
2022/01/31 05:50:34;;;;;;;6.03;1.55;;;;;;;21.30;30.52;100969.81;7316094;19;130691;-40
2022/01/31 05:53:00;;;;;;;4.25;1.63;;;;;;;21.24;30.69;100972.81;7317963;19;129484;-40
2022/01/31 05:55:27;;;;;;;5.28;1.77;;;;;;;21.17;30.97;100973.84;7314449;19;129572;-41
2022/01/31 05:57:54;;;;;;;6.68;1.67;;;;;;;21.11;30.87;100962.97;7317483;19;129509;-40
2022/01/31 06:00:22;;;;;;;6.10;1.77;;;;;;;21.04;31.00;100960.38;7313384;19;129466;-40
2022/01/31 06:02:57;;;;;;;6.80;1.92;;;;;;;20.98;30.86;100972.53;7317385;19;129680;-42
2022/01/31 06:05:24;;;;;;;8.02;2.00;;;;;;;20.92;30.59;100968.03;7315448;19;129762;-41
2022/01/31 06:07:51;;;;;;;8.25;2.30;;;;;;;20.86;30.69;100969.94;7313927;19;130226;-42
2022/01/31 06:10:18;;;;;;;7.13;1.83;;;;;;;20.80;30.71;100966.22;7315638;19;128923;-40
2022/01/31 06:12:45;;;;;;;6.90;2.05;;;;;;;20.75;30.68;100961.44;7312627;19;129082;-41
2022/01/31 06:15:14;;;;;;;8.32;2.03;;;;;;;20.69;30.53;100967.16;7314888;19;129521;-43
2022/01/31 06:17:41;;;;;;;7.18;1.65;;;;;;;20.64;30.66;100967.94;7314560;19;131299;-40
2022/01/31 06:20:08;;;;;;;8.18;2.17;;;;;;;20.59;30.65;100979.84;7314014;19;128897;-41
2022/01/31 06:22:43;;;;;;;6.13;2.15;;;;;;;20.54;30.75;100974.25;7315750;19;128799;-40
2022/01/31 06:25:12;;;;;;;7.57;2.38;;;;;;;20.49;31.07;100981.69;7312187;19;130033;-40
2022/01/31 06:27:39;;;;;;;10.30;2.05;;;;;;;20.46;30.87;100983.00;7315868;19;132926;-39
2022/01/31 06:30:06;;;;;;;8.10;1.90;;;;;;;20.48;31.47;100980.00;7314698;19;130216;-40
2022/01/31 06:32:33;;;;;;;6.43;2.22;;;;;;;20.47;30.92;100981.91;7314619;19;129006;-43
2022/01/31 06:35:00;;;;;;;10.02;1.98;;;;;;;20.49;30.44;100979.72;7315795;19;130022;-40
2022/01/31 06:37:27;;;;;;;10.85;1.90;;;;;;;20.56;30.75;100977.59;7314154;19;129495;-40
2022/01/31 06:39:53;;;;;;;10.23;2.28;;;;;;;20.70;30.50;100977.19;7313930;19;128852;-40
2022/01/31 06:42:20;;;;;;;11.10;2.10;;;;;;;20.85;29.83;100982.97;7309438;19;129629;-40
2022/01/31 06:44:47;;;;;;;11.20;2.30;;;;;;;21.03;30.17;100980.97;7315107;19;129562;-40
2022/01/31 06:47:14;;;;;;;10.02;2.05;;;;;;;21.20;29.68;100981.69;7311451;19;129481;-43
2022/01/31 06:49:41;;;;;;;8.35;2.10;;;;;;;21.38;29.31;100996.34;7313394;19;129607;-40
2022/01/31 06:52:07;;;;;;;8.93;2.28;;;;;;;21.49;29.33;100995.34;7313105;19;129501;-40
2022/01/31 06:54:35;;;;;;;6.07;2.05;;;;;;;21.62;28.87;100999.63;7312372;19;130026;-40
2022/01/31 06:57:04;;;;;;;8.63;2.20;;;;;;;21.72;29.24;100996.09;7315099;19;131135;-41
2022/01/31 06:59:31;;;;;;;9.80;2.20;;;;;;;21.81;28.77;101022.34;7315200;19;129793;-40
2022/01/31 07:02:02;;;;;;;5.25;1.92;;;;;;;21.88;28.59;101016.56;7314472;19;129299;-43
2022/01/31 07:04:29;;;;;;;8.85;2.15;;;;;;;21.97;28.83;101005.75;7315362;19;131231;-40
2022/01/31 07:06:56;;;;;;;7.22;1.65;;;;;;;22.03;28.46;100990.75;7313099;19;129553;-43
2022/01/31 07:09:22;;;;;;;9.07;2.08;;;;;;;22.11;28.34;100994.97;7315362;19;129043;-41
2022/01/31 07:11:52;;;;;;;9.60;1.75;;;;;;;22.17;28.47;101002.28;7312544;19;128864;-41
2022/01/31 07:14:31;;;;;;;8.02;2.10;;;;;;;22.24;28.16;101004.88;7313650;19;129589;-40
2022/01/31 07:17:03;;;;;;;5.53;1.75;;;;;;;22.30;27.95;101012.13;7315081;19;129547;-42
2022/01/31 07:19:33;;;;;;;23.42;2.97;;;;;;;22.35;28.09;101014.97;7312937;19;129169;-40
2022/01/31 07:22:03;;;;;;;14.32;2.45;;;;;;;22.38;27.34;101019.16;7313807;19;129031;-40
2022/01/31 07:24:43;;;;;;;16.90;2.53;;;;;;;22.40;27.62;101022.50;7313309;19;131021;-40
2022/01/31 07:27:10;;;;;;;8.02;1.48;;;;;;;22.39;27.50;101027.25;7312317;19;129439;-41
2022/01/31 07:29:38;;;;;;;11.60;2.40;;;;;;;22.40;27.18;101025.31;7313983;19;129630;-40
2022/01/31 07:32:07;;;;;;;9.10;1.92;;;;;;;22.39;27.47;101026.41;7312564;19;129025;-42
2022/01/31 07:34:34;;;;;;;11.30;2.22;;;;;;;22.31;27.38;101036.13;7314541;19;130524;-42
2022/01/31 07:37:03;;;;;;;14.02;2.28;;;;;;;22.28;27.47;101034.72;7313964;19;129463;-40
2022/01/31 07:39:31;;;;;;;12.68;2.45;;;;;;;22.23;27.53;101042.19;7312345;19;131641;-41
2022/01/31 07:41:58;;;;;;;12.27;2.38;;;;;;;22.15;27.29;101043.50;7311435;19;128947;-40
2022/01/31 07:44:25;;;;;;;7.85;2.22;;;;;;;22.08;27.49;101032.59;7312190;19;129947;-42
2022/01/31 07:46:52;;;;;;;10.40;2.40;;;;;;;22.01;27.36;101043.13;7315056;19;129489;-43
2022/01/31 07:49:21;;;;;;;12.25;2.20;;;;;;;21.94;27.04;101025.78;7311877;19;129146;-40
2022/01/31 07:51:49;;;;;;;12.07;2.25;;;;;;;21.88;27.25;101055.53;7312686;19;129705;-43
2022/01/31 07:54:18;;;;;;;11.30;2.60;;;;;;;21.81;27.23;101043.81;7314195;19;129480;-40
2022/01/31 07:56:45;;;;;;;8.90;2.13;;;;;;;21.76;27.61;101035.38;7311634;19;129352;-40
2022/01/31 07:59:12;;;;;;;11.88;2.80;;;;;;;21.72;27.46;101028.69;7314104;19;128707;-42
2022/01/31 08:01:40;;;;;;;11.77;2.70;;;;;;;21.66;27.20;101053.69;7310624;19;128865;-40
2022/01/31 08:04:07;;;;;;;7.95;2.22;;;;;;;21.60;27.26;101059.47;7312599;19;129679;-41
2022/01/31 08:06:33;;;;;;;8.68;1.77;;;;;;;21.55;27.50;101056.63;7313524;19;130479;-40
2022/01/31 08:09:00;;;;;;;8.13;1.77;;;;;;;21.49;27.55;101053.81;7312065;19;129109;-40
2022/01/31 08:11:32;;;;;;;10.50;2.60;;;;;;;21.45;27.38;101063.75;7313102;19;130318;-40
2022/01/31 08:14:01;;;;;;;8.63;2.13;;;;;;;21.40;27.29;101063.72;7310685;19;129912;-41
2022/01/31 08:16:28;;;;;;;6.72;1.98;;;;;;;21.35;27.31;101070.03;7312473;19;129560;-40
2022/01/31 08:18:55;;;;;;;8.35;2.30;;;;;;;21.30;27.29;101061.66;7313775;19;129071;-41
2022/01/31 08:21:23;;;;;;;11.30;1.98;;;;;;;21.26;27.78;101088.31;7310287;19;129684;-44
2022/01/31 08:23:51;;;;;;;9.40;1.92;;;;;;;21.22;27.56;101076.03;7312491;19;130608;-40
2022/01/31 08:26:20;;;;;;;7.55;2.00;;;;;;;21.18;27.63;101053.44;7310895;19;131050;-41
2022/01/31 08:31:18;;;;;;;7.20;2.50;;;;;;;21.13;27.96;101064.53;7311698;19;129787;-40
2022/01/31 08:34:02;;;;;;;8.85;2.70;;;;;;;21.11;27.65;101090.94;7312310;19;130385;-43
2022/01/31 08:36:34;;;;;;;7.97;2.22;;;;;;;21.06;27.59;101061.06;7313500;19;129528;-40
2022/01/31 08:39:10;;;;;;;10.20;2.38;;;;;;;21.03;27.62;101067.19;7312324;19;129428;-40
2022/01/31 08:41:43;;;;;;;13.32;2.13;;;;;;;20.99;27.30;101066.00;7318106;19;129463;-41
2022/01/31 08:44:15;;;;;;;7.85;2.30;;;;;;;20.96;27.57;101083.22;7319882;19;129881;-41
2022/01/31 08:46:42;;;;;;;7.53;2.28;;;;;;;20.92;27.36;101085.66;7317996;19;129843;-40
2022/01/31 08:49:10;;;;;;;8.90;2.45;;;;;;;20.89;27.68;101100.94;7320243;19;129449;-40
2022/01/31 08:51:37;;;;;;;9.27;2.70;;;;;;;20.87;27.33;101085.59;7317259;19;132473;-40
2022/01/31 08:54:06;;;;;;;7.10;2.30;;;;;;;20.85;27.32;101110.88;7319742;19;129613;-40
2022/01/31 08:56:40;;;;;;;11.40;2.53;;;;;;;20.84;27.43;101125.88;7320089;19;129790;-40
2022/01/31 08:59:08;;;;;;;8.98;2.70;;;;;;;20.82;27.65;101116.13;7318291;19;129001;-41
2022/01/31 09:01:35;;;;;;;10.65;2.40;;;;;;;20.79;27.48;101139.72;7318253;19;129568;-43
2022/01/31 09:04:04;;;;;;;9.75;2.65;;;;;;;20.74;27.39;101128.50;7316840;19;129706;-40
2022/01/31 09:06:34;;;;;;;9.93;2.45;;;;;;;20.70;27.07;101114.28;7319294;19;129802;-40
2022/01/31 09:09:08;;;;;;;11.23;2.42;;;;;;;20.68;27.45;101110.03;7316549;19;128869;-41
2022/01/31 09:11:37;;;;;;;7.90;2.35;;;;;;;20.64;27.02;101101.38;7318872;19;129282;-40
2022/01/31 09:14:04;;;;;;;9.48;2.60;;;;;;;20.63;27.40;101107.22;7318291;19;129605;-40
2022/01/31 09:16:31;;;;;;;13.15;2.80;;;;;;;20.59;26.82;101096.59;7313491;19;130407;-40
2022/01/31 09:18:58;;;;;;;9.15;2.58;;;;;;;20.54;27.32;101095.69;7318530;19;128995;-40
2022/01/31 09:21:25;;;;;;;9.32;2.65;;;;;;;20.55;27.42;101122.38;7312820;19;129208;-40
2022/01/31 09:23:53;;;;;;;12.02;2.65;;;;;;;20.56;27.50;101129.63;7315606;19;130056;-40
2022/01/31 09:26:23;;;;;;;12.23;2.40;;;;;;;20.53;27.29;101119.00;7317655;19;131609;-40
2022/01/31 09:28:51;;;;;;;14.25;3.00;;;;;;;20.51;27.42;101127.59;7314898;19;130052;-40
2022/01/31 09:31:19;;;;;;;47.90;4.95;;;;;;;20.49;27.15;101137.31;7314815;19;129393;-40
2022/01/31 09:33:48;;;;;;;27.17;3.60;;;;;;;20.47;26.98;101172.84;7314306;19;130729;-41
2022/01/31 09:36:15;;;;;;;21.00;3.47;;;;;;;20.45;27.02;101173.06;7316411;19;129462;-41
2022/01/31 09:38:42;;;;;;;15.82;3.30;;;;;;;20.44;27.12;101171.38;7318181;19;128805;-40
2022/01/31 09:41:13;;;;;;;21.45;3.60;;;;;;;20.42;27.25;101166.09;7315630;19;128897;-40
2022/01/31 09:44:08;;;;;;;18.33;3.30;;;;;;;20.42;26.92;101177.22;7317556;19;129501;-40
2022/01/31 09:48:56;;;;;;;12.93;2.40;;;;;;;20.45;27.21;101173.06;7316289;19;129098;-40
2022/01/31 09:51:25;;;;;;;14.77;2.90;;;;;;;20.47;27.12;101178.41;7315883;19;129834;-40
2022/01/31 09:54:00;;;;;;;13.15;2.88;;;;;;;20.48;27.25;101172.56;7315106;19;130027;-40
2022/01/31 09:56:36;;;;;;;10.45;3.10;;;;;;;20.51;26.87;101179.56;7317087;19;129491;-43
2022/01/31 09:59:04;;;;;;;12.38;2.60;;;;;;;20.51;26.89;101174.84;7314507;19;128834;-39
2022/01/31 10:01:47;;;;;;;10.10;2.80;;;;;;;20.54;27.23;101177.13;7316185;19;129424;-39
2022/01/31 10:04:19;;;;;;;13.88;3.17;;;;;;;20.54;27.12;101176.28;7317391;19;131935;-39
2022/01/31 10:06:54;;;;;;;10.65;3.03;;;;;;;20.54;26.76;101187.41;7308509;19;129943;-40
2022/01/31 10:09:27;;;;;;;14.45;3.20;;;;;;;20.54;26.93;101190.19;7316960;19;129326;-39
2022/01/31 10:12:11;;;;;;;13.98;2.95;;;;;;;20.54;26.95;101177.13;7313267;19;129404;-39
2022/01/31 10:17:28;;;;;;;;;;;;;;;20.48;26.71;101194.81;7317117;19;129617;-40
2022/01/31 10:20:06;;;;;;;9.65;3.17;;;;;;;20.50;27.33;101186.22;7313831;19;129266;-39
2022/01/31 10:22:35;;;;;;;14.68;3.03;;;;;;;20.49;26.62;101199.28;7314952;19;131134;-39
2022/01/31 10:25:07;;;;;;;12.20;3.45;;;;;;;20.47;27.06;101193.13;7313312;19;129898;-39
2022/01/31 10:27:36;;;;;;;12.38;3.90;;;;;;;20.48;26.79;101210.66;7315218;19;129789;-40
2022/01/31 10:30:13;;;;;;;12.63;3.65;;;;;;;20.49;26.91;101217.91;7316163;19;129499;-39
2022/01/31 10:32:42;;;;;;;;;;;;;;;20.49;26.72;101218.72;7314611;19;129228;-40
2022/01/31 10:35:15;;;;;;;12.50;3.05;;;;;;;20.59;26.39;101232.78;7315921;19;130129;-39
2022/01/31 10:37:42;;;;;;;12.65;3.17;;;;;;;20.62;26.75;101223.09;7312835;19;129561;-39
2022/01/31 10:43:28;;;;;;;14.02;3.85;;;;;;;20.69;26.02;101240.47;7313647;19;128996;-42
2022/01/31 10:56:44;;;;;;;14.13;3.67;;;;;;;20.84;25.86;101270.47;7315475;19;129906;-43
2022/01/31 10:59:38;;;;;;;11.55;3.65;;;;;;;20.88;25.96;101268.88;7315394;19;130759;-45
2022/01/31 11:02:15;;;;;;;12.48;3.40;;;;;;;20.93;25.72;101265.34;7313846;19;129251;-44
2022/01/31 11:04:43;;;;;;;;;;;;;;;20.93;25.83;101262.56;7316677;19;130731;-43
2022/01/31 11:07:13;;;;;;;15.10;3.58;;;;;;;20.98;25.87;101256.25;7312562;19;130036;-44
2022/01/31 11:09:42;;;;;;;15.65;3.90;;;;;;;20.98;25.67;101259.03;7312732;19;132591;-41
2022/01/31 11:12:10;;;;;;;14.52;3.30;;;;;;;20.98;25.81;101271.00;7314985;19;128809;-42
2022/01/31 11:14:40;;;;;;;13.90;3.45;;;;;;;21.03;25.64;101292.50;7314098;19;129481;-40
2022/01/31 11:17:17;;;;;;;15.07;3.65;;;;;;;21.05;25.32;101265.22;7315569;19;129709;-41
2022/01/31 11:19:49;;;;;;;13.90;3.95;;;;;;;21.08;25.72;101278.66;7305297;19;130398;-43
2022/01/31 11:22:26;;;;;;;13.90;3.80;;;;;;;21.11;25.49;101269.78;7313776;19;128827;-43
2022/01/31 11:25:16;;;;;;;10.93;3.55;;;;;;;21.15;25.31;101286.81;7312875;19;128976;-44
2022/01/31 11:27:53;;;;;;;12.73;3.17;;;;;;;21.17;25.40;101291.00;7311100;19;129632;-41
2022/01/31 11:30:22;;;;;;;16.42;4.18;;;;;;;21.17;25.17;101295.75;7312368;19;129593;-44
2022/01/31 11:32:49;;;;;;;12.73;3.50;;;;;;;21.18;25.43;101286.31;7311917;19;129043;-41
2022/01/31 11:35:16;;;;;;;16.00;4.10;;;;;;;21.19;25.31;101294.38;7313055;19;130533;-41
2022/01/31 11:37:43;;;;;;;17.05;4.10;;;;;;;21.20;25.60;101293.31;7312639;19;131874;-41
2022/01/31 11:40:13;;;;;;;14.10;3.78;;;;;;;21.22;25.43;101293.06;7311673;19;129902;-42
2022/01/31 11:42:44;;;;;;;15.93;4.07;;;;;;;21.22;25.16;101296.66;7311491;19;131748;-43
2022/01/31 11:45:20;;;;;;;15.60;3.80;;;;;;;21.25;25.63;101286.13;7311978;19;129283;-40